createdAt,value
2023-09-09T00:00:37.637Z,101513.25
2023-09-09T00:01:39.217Z,101515.03
2023-09-09T00:02:40.960Z,101507.94
2023-09-09T00:03:43.126Z,101516.84
2023-09-09T00:04:45.116Z,101512.41
2023-09-09T00:05:46.915Z,101514.16
2023-09-09T00:06:48.603Z,101510.59
2023-09-09T00:07:50.318Z,101506.16
2023-09-09T00:08:52.045Z,101507.94
2023-09-09T00:09:53.691Z,101515.88
2023-09-09T00:10:55.369Z,101511.41
2023-09-09T00:11:57.264Z,101511.41
2023-09-09T00:12:58.989Z,101499.88
2023-09-09T00:14:00.665Z,101510.53
2023-09-09T00:15:02.290Z,101502.53
2023-09-09T00:16:05.438Z,101500.72
2023-09-09T00:17:07.456Z,101507.81
2023-09-09T00:18:09.096Z,101504.25
2023-09-09T00:19:10.734Z,101501.56
2023-09-09T00:20:15.598Z,101501.59
2023-09-09T00:21:17.265Z,101509.56
2023-09-09T00:22:18.894Z,101501.56
2023-09-09T00:23:20.500Z,101508.63
2023-09-09T00:24:22.197Z,101505.03
2023-09-09T00:25:23.998Z,101514.84
2023-09-09T00:26:25.587Z,101497.09
2023-09-09T00:27:27.753Z,101508.63
2023-09-09T00:28:29.326Z,101503.31
2023-09-09T00:29:30.899Z,101505.09
2023-09-09T00:30:32.815Z,101507.72
2023-09-09T00:31:35.796Z,101501.50
2023-09-09T00:32:37.449Z,101503.31
2023-09-09T00:33:39.326Z,101505.09
2023-09-09T00:34:41.285Z,101500.63
2023-09-09T00:35:43.214Z,101505.97
2023-09-09T00:36:44.809Z,101506.00
2023-09-09T00:37:46.740Z,101506.91
2023-09-09T00:38:48.327Z,101508.69
2023-09-09T00:39:50.134Z,101512.28
2023-09-09T00:41:10.809Z,101503.41
2023-09-09T00:42:12.507Z,101505.22
2023-09-09T00:43:14.506Z,101503.41
2023-09-09T00:44:16.093Z,101504.28
2023-09-09T00:45:17.952Z,101506.97
2023-09-09T00:46:19.897Z,101509.63
2023-09-09T00:47:25.718Z,101497.22
2023-09-09T00:48:27.763Z,101505.19
2023-09-09T00:49:29.426Z,101503.41
2023-09-09T00:50:31.179Z,101507.84
2023-09-09T00:51:32.909Z,101500.72
2023-09-09T00:52:35.363Z,101500.72
2023-09-09T00:53:37.783Z,101502.44
2023-09-09T00:54:39.751Z,101497.97
2023-09-09T00:55:43.010Z,101502.44
2023-09-09T00:56:44.606Z,101503.34
2023-09-09T00:57:46.365Z,101504.22
2023-09-09T00:58:48.026Z,101496.22
2023-09-09T00:59:49.701Z,101503.34
2023-09-09T01:00:51.323Z,101499.78
2023-09-09T01:01:53.428Z,101495.31
2023-09-09T01:02:56.496Z,101496.25
2023-09-09T01:03:59.261Z,101493.53
2023-09-09T01:05:01.561Z,101501.50
2023-09-09T01:06:04.442Z,101498.81
2023-09-09T01:07:06.404Z,101497.94
2023-09-09T01:08:08.455Z,101498.81
2023-09-09T01:09:10.174Z,101489.97
2023-09-09T01:10:12.251Z,101489.94
2023-09-09T01:11:13.841Z,101489.94
2023-09-09T01:12:15.489Z,101494.38
2023-09-09T01:13:17.096Z,101493.50
2023-09-09T01:14:18.969Z,101495.28
2023-09-09T01:15:20.822Z,101497.09
2023-09-09T01:16:23.028Z,101490.88
2023-09-09T01:17:24.926Z,101498.84
2023-09-09T01:18:28.109Z,101490.88
2023-09-09T01:19:30.144Z,101494.44
2023-09-09T01:20:36.971Z,101492.66
2023-09-09T01:21:42.539Z,101492.63
2023-09-09T01:22:46.891Z,101494.41
2023-09-09T01:23:48.694Z,101504.16
2023-09-09T01:24:50.327Z,101489.06
2023-09-09T01:25:51.880Z,101492.63
2023-09-09T01:26:53.554Z,101495.28
2023-09-09T01:27:55.216Z,101500.59
2023-09-09T01:28:56.788Z,101491.69
2023-09-09T01:29:58.559Z,101490.72
2023-09-09T01:31:00.282Z,101492.50
2023-09-09T01:32:01.993Z,101491.63
2023-09-09T01:33:04.186Z,101486.28
2023-09-09T01:34:06.108Z,101487.16
2023-09-09T01:35:08.316Z,101483.56
2023-09-09T01:36:10.011Z,101485.31
2023-09-09T01:37:11.713Z,101485.25
2023-09-09T01:38:14.914Z,101493.22
2023-09-09T01:39:16.697Z,101487.91
2023-09-09T01:40:18.785Z,101492.34
2023-09-09T01:41:20.440Z,101479.88
2023-09-09T01:42:22.118Z,101487.78
2023-09-09T01:43:23.724Z,101479.81
2023-09-09T01:44:25.394Z,101487.78
2023-09-09T01:45:26.984Z,101486.84
2023-09-09T01:46:28.679Z,101485.94
2023-09-09T01:47:30.322Z,101479.75
2023-09-09T01:48:32.137Z,101492.22
2023-09-09T01:49:33.786Z,101485.13
2023-09-09T01:50:35.392Z,101482.47
2023-09-09T01:51:37.092Z,101488.69
2023-09-09T01:52:38.719Z,101489.56
2023-09-09T01:53:41.777Z,101487.78
2023-09-09T01:54:43.618Z,101488.69
2023-09-09T01:55:45.340Z,101487.78
2023-09-09T01:56:46.931Z,101484.25
2023-09-09T01:57:48.615Z,101487.75
2023-09-09T01:58:50.726Z,101481.56
2023-09-09T01:59:52.331Z,101481.63
2023-09-09T02:00:53.925Z,101482.50
2023-09-09T02:01:55.543Z,101481.63
2023-09-09T02:02:57.420Z,101484.28
2023-09-09T02:03:59.181Z,101486.91
2023-09-09T02:05:01.051Z,101491.34
2023-09-09T02:06:02.713Z,101486.91
2023-09-09T02:07:04.704Z,101485.13
2023-09-09T02:08:06.763Z,101486.00
2023-09-09T02:09:09.691Z,101490.44
2023-09-09T02:10:13.861Z,101483.41
2023-09-09T02:11:15.768Z,101477.22
2023-09-09T02:12:17.485Z,101477.22
2023-09-09T02:13:19.490Z,101477.22
2023-09-09T02:14:21.093Z,101484.28
2023-09-09T02:15:22.817Z,101481.63
2023-09-09T02:16:24.472Z,101478.91
2023-09-09T02:17:26.381Z,101484.25
2023-09-09T02:18:28.068Z,101475.28
2023-09-09T02:19:29.733Z,101471.69
2023-09-09T02:20:31.900Z,101477.91
2023-09-09T02:21:33.481Z,101469.88
2023-09-09T02:22:35.193Z,101468.91
2023-09-09T02:23:40.262Z,101469.78
2023-09-09T02:24:43.528Z,101469.78
2023-09-09T02:25:45.196Z,101477.84
2023-09-09T02:26:46.875Z,101469.00
2023-09-09T02:27:48.505Z,101476.94
2023-09-09T02:28:50.148Z,101470.75
2023-09-09T02:29:51.839Z,101470.72
2023-09-09T02:30:53.687Z,101475.09
2023-09-09T02:31:55.506Z,101478.69
2023-09-09T02:32:57.946Z,101468.91
2023-09-09T02:34:00.572Z,101476.81
2023-09-09T02:35:02.370Z,101476.72
2023-09-09T02:36:04.527Z,101470.47
2023-09-09T02:37:13.488Z,101468.75
2023-09-09T02:38:15.140Z,101473.19
2023-09-09T02:39:16.754Z,101474.91
2023-09-09T02:40:19.799Z,101467.81
2023-09-09T02:41:21.622Z,101467.75
2023-09-09T02:42:24.610Z,101465.97
2023-09-09T02:43:26.324Z,101465.06
2023-09-09T02:44:27.955Z,101468.59
2023-09-09T02:45:29.723Z,101462.34
2023-09-09T02:46:31.380Z,101470.25
2023-09-09T02:47:33.137Z,101464.94
2023-09-09T02:48:34.712Z,101463.06
2023-09-09T02:49:36.662Z,101466.69
2023-09-09T02:50:39.109Z,101468.50
2023-09-09T02:51:41.351Z,101464.94
2023-09-09T02:52:43.030Z,101470.22
2023-09-09T02:53:44.961Z,101463.13
2023-09-09T02:54:46.662Z,101471.09
2023-09-09T02:55:49.802Z,101464.00
2023-09-09T02:56:51.394Z,101463.97
2023-09-09T02:57:52.989Z,101465.78
2023-09-09T02:58:54.616Z,101470.28
2023-09-09T02:59:56.189Z,101472.94
2023-09-09T03:01:04.044Z,101470.34
2023-09-09T03:02:08.799Z,101466.78
2023-09-09T03:03:11.727Z,101463.25
2023-09-09T03:04:13.961Z,101466.88
2023-09-09T03:05:17.024Z,101465.00
2023-09-09T03:06:18.743Z,101465.00
2023-09-09T03:07:20.821Z,101466.88
2023-09-09T03:08:22.419Z,101470.38
2023-09-09T03:09:24.101Z,101472.09
2023-09-09T03:10:26.133Z,101473.97
2023-09-09T03:11:29.067Z,101466.88
2023-09-09T03:12:30.740Z,101471.34
2023-09-09T03:13:32.466Z,101468.72
2023-09-09T03:14:34.244Z,101471.34
2023-09-09T03:15:35.872Z,101465.16
2023-09-09T03:16:38.976Z,101467.84
2023-09-09T03:17:40.693Z,101470.41
2023-09-09T03:18:42.479Z,101467.66
2023-09-09T03:19:44.458Z,101471.16
2023-09-09T03:20:46.305Z,101459.63
2023-09-09T03:21:47.894Z,101462.31
2023-09-09T03:22:49.547Z,101459.66
2023-09-09T03:23:51.132Z,101461.41
2023-09-09T03:24:52.746Z,101464.94
2023-09-09T03:25:54.459Z,101467.63
2023-09-09T03:26:57.493Z,101463.25
2023-09-09T03:27:59.373Z,101470.34
2023-09-09T03:29:01.134Z,101466.94
2023-09-09T03:30:03.402Z,101463.47
2023-09-09T03:31:05.049Z,101462.59
2023-09-09T03:32:06.945Z,101461.66
2023-09-09T03:33:08.601Z,101462.59
2023-09-09T03:34:10.907Z,101451.97
2023-09-09T03:35:12.657Z,101460.81
2023-09-09T03:36:14.442Z,101464.22
2023-09-09T03:37:16.271Z,101465.00
2023-09-09T03:38:18.089Z,101468.50
2023-09-09T03:39:19.672Z,101466.72
2023-09-09T03:40:21.233Z,101463.94
2023-09-09T03:41:23.032Z,101461.31
2023-09-09T03:42:25.973Z,101469.31
2023-09-09T03:43:27.670Z,101459.53
2023-09-09T03:44:29.307Z,101464.78
2023-09-09T03:45:30.922Z,101465.78
2023-09-09T03:46:32.634Z,101477.28
2023-09-09T03:47:35.455Z,101470.22
2023-09-09T03:48:37.203Z,101464.94
2023-09-09T03:49:38.873Z,101465.84
2023-09-09T03:50:40.533Z,101474.84
2023-09-09T03:51:42.472Z,101471.25
2023-09-09T03:52:44.340Z,101471.34
2023-09-09T03:53:46.051Z,101469.50
2023-09-09T03:54:47.738Z,101467.84
2023-09-09T03:55:49.396Z,101461.72
2023-09-09T03:56:51.045Z,101472.28
2023-09-09T03:57:54.456Z,101465.25
2023-09-09T03:58:56.145Z,101475.91
2023-09-09T03:59:57.769Z,101473.34
2023-09-09T04:01:04.013Z,101461.84
2023-09-09T04:02:06.113Z,101466.31
2023-09-09T04:03:07.795Z,101464.47
2023-09-09T04:04:09.693Z,101461.81
2023-09-09T04:05:11.942Z,101464.47
2023-09-09T04:06:14.090Z,101462.72
2023-09-09T04:07:17.348Z,101462.72
2023-09-09T04:08:18.954Z,101463.63
2023-09-09T04:09:20.636Z,101460.13
2023-09-09T04:10:22.482Z,101467.22
2023-09-09T04:11:24.506Z,101469.03
2023-09-09T04:12:26.158Z,101466.31
2023-09-09T04:13:29.031Z,101469.03
2023-09-09T04:14:30.682Z,101473.38
2023-09-09T04:15:32.334Z,101472.50
2023-09-09T04:16:33.941Z,101472.50
2023-09-09T04:17:35.701Z,101472.53
2023-09-09T04:18:46.562Z,101477.06
2023-09-09T04:19:51.528Z,101474.41
2023-09-09T04:20:53.431Z,101474.41
2023-09-09T04:21:55.156Z,101476.16
2023-09-09T04:22:56.767Z,101483.28
2023-09-09T04:23:58.335Z,101483.28
2023-09-09T04:24:59.902Z,101470.88
2023-09-09T04:26:01.980Z,101481.53
2023-09-09T04:27:04.029Z,101475.19
2023-09-09T04:28:06.677Z,101475.25
2023-09-09T04:29:09.694Z,101475.16
2023-09-09T04:30:12.668Z,101479.66
2023-09-09T04:31:14.449Z,101479.63
2023-09-09T04:32:17.612Z,101476.00
2023-09-09T04:33:19.291Z,101470.72
2023-09-09T04:34:22.212Z,101480.56
2023-09-09T04:35:23.819Z,101485.00
2023-09-09T04:36:25.643Z,101479.72
2023-09-09T04:37:27.321Z,101482.38
2023-09-09T04:38:28.998Z,101477.91
2023-09-09T04:39:30.679Z,101481.50
2023-09-09T04:40:32.388Z,101484.16
2023-09-09T04:41:34.017Z,101482.34
2023-09-09T04:42:35.965Z,101479.69
2023-09-09T04:43:37.974Z,101480.56
2023-09-09T04:44:41.540Z,101482.34
2023-09-09T04:45:43.231Z,101477.88
2023-09-09T04:46:44.925Z,101483.19
2023-09-09T04:47:46.786Z,101474.31
2023-09-09T04:48:52.766Z,101482.34
2023-09-09T04:49:54.405Z,101482.38
2023-09-09T04:50:56.243Z,101473.50
2023-09-09T04:51:57.921Z,101477.94
2023-09-09T04:52:59.460Z,101477.06
2023-09-09T04:54:01.041Z,101479.69
2023-09-09T04:55:02.737Z,101478.78
2023-09-09T04:56:04.547Z,101481.50
2023-09-09T04:57:06.363Z,101482.34
2023-09-09T04:58:09.283Z,101474.31
2023-09-09T04:59:10.994Z,101477.84
2023-09-09T05:00:14.498Z,101482.25
2023-09-09T05:01:16.576Z,101481.31
2023-09-09T05:02:18.319Z,101485.69
2023-09-09T05:03:20.225Z,101490.13
2023-09-09T05:04:21.981Z,101491.03
2023-09-09T05:05:23.773Z,101493.69
2023-09-09T05:06:25.403Z,101476.84
2023-09-09T05:07:27.015Z,101485.69
2023-09-09T05:08:28.666Z,101485.63
2023-09-09T05:09:30.399Z,101496.28
2023-09-09T05:10:32.008Z,101490.09
2023-09-09T05:11:33.715Z,101487.47
2023-09-09T05:12:35.847Z,101487.47
2023-09-09T05:13:37.703Z,101487.50
2023-09-09T05:14:39.488Z,101480.38
2023-09-09T05:15:43.214Z,101493.56
2023-09-09T05:16:44.914Z,101487.38
2023-09-09T05:17:46.628Z,101491.81
2023-09-09T05:18:48.345Z,101494.41
2023-09-09T05:19:50.009Z,101489.97
2023-09-09T05:20:51.823Z,101493.47
2023-09-09T05:21:54.246Z,101494.31
2023-09-09T05:22:55.874Z,101492.56
2023-09-09T05:23:57.601Z,101498.84
2023-09-09T05:24:59.186Z,101498.88
2023-09-09T05:26:00.902Z,101498.84
2023-09-09T05:27:02.703Z,101500.56
2023-09-09T05:28:05.032Z,101497.06
2023-09-09T05:29:06.997Z,101504.19
2023-09-09T05:30:08.957Z,101501.59
2023-09-09T05:31:12.032Z,101497.19
2023-09-09T05:32:13.726Z,101499.00
2023-09-09T05:33:15.526Z,101493.72
2023-09-09T05:34:17.207Z,101499.88
2023-09-09T05:35:19.089Z,101496.31
2023-09-09T05:36:21.018Z,101499.00
2023-09-09T05:37:22.681Z,101500.78
2023-09-09T05:38:24.364Z,101493.69
2023-09-09T05:39:26.147Z,101493.72
2023-09-09T05:40:27.829Z,101495.50
2023-09-09T05:41:29.863Z,101501.66
2023-09-09T05:42:32.121Z,101499.94
2023-09-09T05:43:33.877Z,101499.84
2023-09-09T05:44:35.980Z,101499.78
2023-09-09T05:45:37.714Z,101511.28
2023-09-09T05:46:41.026Z,101500.66
2023-09-09T05:47:42.793Z,101500.75
2023-09-09T05:48:44.589Z,101501.66
2023-09-09T05:49:46.517Z,101495.50
2023-09-09T05:50:48.122Z,101504.38
2023-09-09T05:51:49.671Z,101502.66
2023-09-09T05:52:55.302Z,101501.81
2023-09-09T05:53:59.626Z,101501.84
2023-09-09T05:55:01.413Z,101499.22
2023-09-09T05:56:03.652Z,101493.06
2023-09-09T05:57:06.310Z,101503.75
2023-09-09T05:58:08.068Z,101499.38
2023-09-09T05:59:09.715Z,101503.84
2023-09-09T06:00:12.286Z,101497.69
2023-09-09T06:01:20.469Z,101502.13
2023-09-09T06:02:23.588Z,101510.16
2023-09-09T06:03:25.336Z,101509.28
2023-09-09T06:04:28.892Z,101509.34
2023-09-09T06:05:30.716Z,101508.50
2023-09-09T06:06:32.378Z,101506.78
2023-09-09T06:07:33.979Z,101508.59
2023-09-09T06:08:35.712Z,101504.19
2023-09-09T06:09:37.441Z,101504.19
2023-09-09T06:10:39.252Z,101497.09
2023-09-09T06:11:41.056Z,101510.47
2023-09-09T06:12:42.773Z,101507.78
2023-09-09T06:13:44.804Z,101508.72
2023-09-09T06:14:46.387Z,101512.28
2023-09-09T06:15:48.083Z,101512.25
2023-09-09T06:16:49.957Z,101507.84
2023-09-09T06:17:52.970Z,101511.44
2023-09-09T06:18:54.630Z,101502.56
2023-09-09T06:19:56.242Z,101502.56
2023-09-09T06:20:58.250Z,101509.72
2023-09-09T06:22:01.756Z,101506.19
2023-09-09T06:23:03.691Z,101506.22
2023-09-09T06:24:05.918Z,101508.88
2023-09-09T06:25:08.224Z,101507.09
2023-09-09T06:26:10.020Z,101506.25
2023-09-09T06:27:13.716Z,101509.81
2023-09-09T06:28:15.788Z,101517.81
2023-09-09T06:29:21.759Z,101504.47
2023-09-09T06:30:23.444Z,101513.41
2023-09-09T06:31:25.370Z,101508.06
2023-09-09T06:32:27.242Z,101515.16
2023-09-09T06:33:30.947Z,101511.59
2023-09-09T06:34:32.644Z,101516.06
2023-09-09T06:35:34.577Z,101516.03
2023-09-09T06:36:36.252Z,101522.25
2023-09-09T06:37:37.894Z,101512.44
2023-09-09T06:38:39.583Z,101521.31
2023-09-09T06:39:41.255Z,101514.19
2023-09-09T06:40:45.046Z,101509.72
2023-09-09T06:41:46.450Z,101508.81
2023-09-09T06:42:48.098Z,101511.50
2023-09-09T06:43:51.416Z,101515.91
2023-09-09T06:44:53.107Z,101516.78
2023-09-09T06:45:54.804Z,101516.81
2023-09-09T06:46:56.541Z,101515.88
2023-09-09T06:47:58.289Z,101517.59
2023-09-09T06:49:01.281Z,101521.16
2023-09-09T06:50:03.011Z,101525.59
2023-09-09T06:51:04.652Z,101521.94
2023-09-09T06:52:06.983Z,101514.75
2023-09-09T06:53:08.587Z,101523.66
2023-09-09T06:54:12.268Z,101517.41
2023-09-09T06:55:13.757Z,101513.75
2023-09-09T06:56:17.624Z,101519.09
2023-09-09T06:57:19.193Z,101519.94
2023-09-09T06:58:20.917Z,101515.59
2023-09-09T06:59:22.597Z,101528.88
2023-09-09T07:00:24.187Z,101519.03
2023-09-09T07:01:25.845Z,101521.69
2023-09-09T07:02:33.182Z,101518.03
2023-09-09T07:03:38.693Z,101515.25
2023-09-09T07:04:43.524Z,101521.41
2023-09-09T07:05:45.695Z,101514.44
2023-09-09T07:07:09.727Z,101514.38
2023-09-09T07:08:12.491Z,101524.13
2023-09-09T07:09:14.150Z,101512.56
2023-09-09T07:10:15.781Z,101518.78
2023-09-09T07:11:22.516Z,101516.13
2023-09-09T07:12:24.218Z,101518.72
2023-09-09T07:13:25.826Z,101519.47
2023-09-09T07:14:29.444Z,101523.81
2023-09-09T07:15:35.321Z,101520.06
2023-09-09T07:16:39.833Z,101515.50
2023-09-09T07:17:41.549Z,101527.97
2023-09-09T07:18:43.201Z,101520.72
2023-09-09T07:19:46.451Z,101514.66
2023-09-09T07:20:48.313Z,101519.91
2023-09-09T07:21:49.896Z,101516.22
2023-09-09T07:22:51.499Z,101516.22
2023-09-09T07:23:54.988Z,101513.44
2023-09-09T07:24:59.658Z,101514.22
2023-09-09T07:26:03.043Z,101518.56
2023-09-09T07:27:07.114Z,101518.56
2023-09-09T07:28:08.715Z,101506.00
2023-09-09T07:29:10.279Z,101508.53
2023-09-09T07:30:12.132Z,101508.47
2023-09-09T07:31:13.828Z,101506.47
2023-09-09T07:32:15.442Z,101504.06
2023-09-09T07:33:17.168Z,101505.91
2023-09-09T07:34:18.873Z,101515.66
2023-09-09T07:35:21.833Z,101518.00
2023-09-09T07:36:23.442Z,101510.31
2023-09-09T07:37:26.411Z,101515.38
2023-09-09T07:38:29.324Z,101511.81
2023-09-09T07:39:30.934Z,101513.44
2023-09-09T07:40:33.093Z,101515.75
2023-09-09T07:41:34.843Z,101506.53
2023-09-09T07:42:36.418Z,101509.19
2023-09-09T07:43:38.442Z,101506.56
2023-09-09T07:44:43.535Z,101511.66
2023-09-09T07:45:47.518Z,101511.34
2023-09-09T07:46:49.214Z,101512.06
2023-09-09T07:47:50.887Z,101511.06
2023-09-09T07:48:52.635Z,101501.06
2023-09-09T07:49:54.299Z,101511.88
2023-09-09T07:51:07.507Z,101506.50
2023-09-09T07:52:09.101Z,101518.88
2023-09-09T07:53:13.420Z,101508.50
2023-09-09T07:54:15.453Z,101513.72
2023-09-09T07:55:17.671Z,101513.69
2023-09-09T07:56:19.317Z,101514.31
2023-09-09T07:57:23.238Z,101519.53
2023-09-09T07:58:24.841Z,101521.25
2023-09-09T07:59:31.530Z,101510.50
2023-09-09T08:00:33.357Z,101514.78
2023-09-09T08:01:38.261Z,101508.41
2023-09-09T08:02:40.214Z,101519.03
2023-09-09T08:03:42.170Z,101512.50
2023-09-09T08:04:46.468Z,101509.81
2023-09-09T08:05:48.103Z,101510.88
2023-09-09T08:06:54.414Z,101515.09
2023-09-09T08:07:56.094Z,101505.06
2023-09-09T08:08:58.928Z,101505.91
2023-09-09T08:10:03.144Z,101505.81
2023-09-09T08:11:04.851Z,101507.38
2023-09-09T08:12:13.970Z,101509.69
2023-09-09T08:13:50.187Z,101507.88
2023-09-09T08:15:09.131Z,101513.69
2023-09-09T08:16:14.548Z,101503.28
2023-09-09T08:17:16.459Z,101510.84
2023-09-09T08:18:21.131Z,101512.97
2023-09-09T08:19:25.201Z,101511.19
2023-09-09T08:20:28.899Z,101503.59
2023-09-09T08:21:30.691Z,101507.72
2023-09-09T08:22:33.912Z,101511.44
2023-09-09T08:23:39.912Z,101506.69
2023-09-09T08:24:41.733Z,101503.81
2023-09-09T08:25:59.967Z,101505.53
2023-09-09T08:27:05.521Z,101507.06
2023-09-09T08:28:07.369Z,101513.16
2023-09-09T08:29:09.590Z,101506.72
2023-09-09T08:30:12.650Z,101504.78
2023-09-09T08:31:16.378Z,101512.72
2023-09-09T08:32:18.049Z,101509.00
2023-09-09T08:33:21.641Z,101505.34
2023-09-09T08:34:23.160Z,101504.25
2023-09-09T08:35:26.320Z,101499.75
2023-09-09T08:36:27.965Z,101507.84
2023-09-09T08:37:29.590Z,101508.47
2023-09-09T08:38:46.334Z,101502.78
2023-09-09T08:39:54.606Z,101501.47
2023-09-09T08:41:04.109Z,101500.22
2023-09-09T08:42:14.178Z,101501.53
2023-09-09T08:43:22.820Z,101506.66
2023-09-09T08:44:32.855Z,101502.94
2023-09-09T08:45:44.319Z,101504.75
2023-09-09T08:46:46.485Z,101506.69
2023-09-09T08:47:49.552Z,101503.69
2023-09-09T08:48:53.737Z,101504.72
2023-09-09T08:49:59.919Z,101507.94
2023-09-09T08:51:04.937Z,101500.50
2023-09-09T08:52:18.822Z,101506.50
2023-09-09T08:53:31.782Z,101501.56
2023-09-09T08:54:34.864Z,101505.09
2023-09-09T08:55:39.331Z,101499.41
2023-09-09T08:56:42.642Z,101500.06
2023-09-09T08:57:44.755Z,101512.59
2023-09-09T08:58:46.426Z,101504.44
2023-09-09T08:59:49.195Z,101506.69
2023-09-09T09:00:51.559Z,101505.22
2023-09-09T09:01:54.351Z,101502.44
2023-09-09T09:02:56.237Z,101500.63
2023-09-09T09:03:59.446Z,101500.03
2023-09-09T09:05:04.317Z,101498.38
2023-09-09T09:06:06.742Z,101504.75
2023-09-09T09:07:08.747Z,101491.28
2023-09-09T09:08:11.453Z,101497.13
2023-09-09T09:09:13.126Z,101495.72
2023-09-09T09:10:19.471Z,101501.16
2023-09-09T09:11:23.522Z,101495.56
2023-09-09T09:12:26.646Z,101498.53
2023-09-09T09:13:31.387Z,101490.41
2023-09-09T09:14:33.364Z,101493.22
2023-09-09T09:15:35.155Z,101495.81
2023-09-09T09:16:39.840Z,101501.53
2023-09-09T09:17:41.529Z,101491.09
2023-09-09T09:18:44.609Z,101494.72
2023-09-09T09:19:47.802Z,101492.22
2023-09-09T09:20:49.582Z,101482.63
2023-09-09T09:21:51.374Z,101486.03
2023-09-09T09:22:58.550Z,101480.84
2023-09-09T09:24:00.251Z,101486.13
2023-09-09T09:25:01.837Z,101482.69
2023-09-09T09:26:04.794Z,101489.53
2023-09-09T09:27:10.050Z,101486.72
2023-09-09T09:28:13.110Z,101471.69
2023-09-09T09:29:14.754Z,101476.38
2023-09-09T09:30:23.287Z,101481.13
2023-09-09T09:31:26.550Z,101473.91
2023-09-09T09:32:40.916Z,101473.25
2023-09-09T09:33:42.840Z,101480.59
2023-09-09T09:34:44.568Z,101479.78
2023-09-09T09:35:49.210Z,101480.00
2023-09-09T09:36:50.899Z,101473.47
2023-09-09T09:37:54.769Z,101473.25
2023-09-09T09:39:01.335Z,101474.63
2023-09-09T09:40:05.131Z,101466.75
2023-09-09T09:41:10.813Z,101468.19
2023-09-09T09:42:14.910Z,101471.59
2023-09-09T09:43:21.800Z,101474.28
2023-09-09T09:44:23.509Z,101466.88
2023-09-09T09:45:26.108Z,101469.03
2023-09-09T09:46:27.838Z,101473.19
2023-09-09T09:47:42.660Z,101469.44
2023-09-09T09:48:45.208Z,101465.03
2023-09-09T09:49:47.192Z,101464.38
2023-09-09T09:50:52.803Z,101470.66
2023-09-09T09:51:54.484Z,101455.41
2023-09-09T09:52:57.337Z,101459.22
2023-09-09T09:53:58.917Z,101452.31
2023-09-09T09:55:00.833Z,101448.72
2023-09-09T09:56:12.691Z,101450.03
2023-09-09T09:57:14.397Z,101452.22
2023-09-09T09:58:16.065Z,101449.09
2023-09-09T09:59:28.184Z,101445.28
2023-09-09T10:00:30.073Z,101450.06
2023-09-09T10:01:32.358Z,101450.88
2023-09-09T10:02:34.170Z,101450.72
2023-09-09T10:03:49.264Z,101448.47
2023-09-09T10:04:54.446Z,101444.13
2023-09-09T10:05:56.405Z,101444.47
2023-09-09T10:07:01.399Z,101445.91
2023-09-09T10:08:12.612Z,101450.53
2023-09-09T10:09:22.538Z,101450.63
2023-09-09T10:10:27.620Z,101445.75
2023-09-09T10:11:36.716Z,101439.19
2023-09-09T10:12:49.032Z,101440.66
2023-09-09T10:14:09.003Z,101442.91
2023-09-09T10:15:13.013Z,101447.72
2023-09-09T10:16:18.141Z,101439.72
2023-09-09T10:17:23.590Z,101441.47
2023-09-09T10:18:27.274Z,101440.50
2023-09-09T10:19:29.883Z,101446.28
2023-09-09T10:20:31.945Z,101439.63
2023-09-09T10:21:42.016Z,101440.38
2023-09-09T10:22:45.537Z,101437.91
2023-09-09T10:23:48.324Z,101447.38
2023-09-09T10:24:51.037Z,101442.16
2023-09-09T10:25:54.277Z,101445.13
2023-09-09T10:27:00.400Z,101447.16
2023-09-09T10:28:02.237Z,101437.53
2023-09-09T10:29:04.672Z,101441.00
2023-09-09T10:30:08.968Z,101434.66
2023-09-09T10:31:13.297Z,101437.78
2023-09-09T10:32:16.169Z,101439.91
2023-09-09T10:33:19.397Z,101431.38
2023-09-09T10:34:22.623Z,101429.63
2023-09-09T10:35:25.085Z,101436.88
2023-09-09T10:36:28.243Z,101426.44
2023-09-09T10:37:33.536Z,101434.41
2023-09-09T10:38:35.367Z,101420.13
2023-09-09T10:39:38.245Z,101428.19
2023-09-09T10:40:40.471Z,101426.25
2023-09-09T10:41:42.807Z,101423.47
2023-09-09T10:42:46.705Z,101424.38
2023-09-09T10:43:48.879Z,101427.88
2023-09-09T10:44:50.742Z,101430.16
2023-09-09T10:45:52.425Z,101433.00
2023-09-09T10:46:57.078Z,101427.44
2023-09-09T10:48:01.936Z,101430.69
2023-09-09T10:49:05.647Z,101421.34
2023-09-09T10:50:08.108Z,101428.47
2023-09-09T10:51:12.738Z,101425.78
2023-09-09T10:52:32.852Z,101428.75
2023-09-09T10:53:34.478Z,101429.22
2023-09-09T10:54:42.784Z,101420.97
2023-09-09T10:55:45.673Z,101419.63
2023-09-09T10:56:48.891Z,101418.63
2023-09-09T10:57:58.959Z,101415.47
2023-09-09T10:59:15.503Z,101417.06
2023-09-09T11:00:37.297Z,101416.63
2023-09-09T11:01:39.082Z,101413.69
2023-09-09T11:02:46.449Z,101414.97
2023-09-09T11:03:48.450Z,101413.00
2023-09-09T11:04:58.829Z,101416.81
2023-09-09T11:06:03.295Z,101410.50
2023-09-09T11:07:07.616Z,101406.34
2023-09-09T11:08:28.491Z,101413.03
2023-09-09T11:09:32.785Z,101417.03
2023-09-09T11:10:34.989Z,101408.84
2023-09-09T11:11:37.255Z,101411.34
2023-09-09T11:12:50.116Z,101408.22
2023-09-09T11:14:00.712Z,101412.41
2023-09-09T11:15:08.410Z,101414.25
2023-09-09T11:16:31.767Z,101408.91
2023-09-09T11:17:34.483Z,101413.81
2023-09-09T11:18:36.802Z,101399.84
2023-09-09T11:19:40.984Z,101401.63
2023-09-09T11:20:43.298Z,101407.84
2023-09-09T11:21:47.362Z,101406.38
2023-09-09T11:22:49.360Z,101405.59
2023-09-09T11:23:52.095Z,101407.56
2023-09-09T11:24:54.486Z,101408.47
2023-09-09T11:25:57.995Z,101408.03
2023-09-09T11:26:59.666Z,101399.72
2023-09-09T11:28:02.362Z,101404.59
2023-09-09T11:29:06.993Z,101402.97
2023-09-09T11:30:12.068Z,101398.84
2023-09-09T11:31:14.234Z,101405.44
2023-09-09T11:32:24.184Z,101405.34
2023-09-09T11:33:26.007Z,101404.34
2023-09-09T11:34:31.566Z,101404.59
2023-09-09T11:35:33.382Z,101404.94
2023-09-09T11:36:35.244Z,101399.47
2023-09-09T11:37:36.882Z,101397.13
2023-09-09T11:38:38.614Z,101397.47
2023-09-09T11:39:40.667Z,101395.84
2023-09-09T11:40:42.371Z,101385.88
2023-09-09T11:41:45.587Z,101400.03
2023-09-09T11:42:53.341Z,101398.75
2023-09-09T11:43:58.942Z,101393.28
2023-09-09T11:45:03.253Z,101393.28
2023-09-09T11:46:07.077Z,101385.38
2023-09-09T11:47:09.105Z,101387.69
2023-09-09T11:48:11.552Z,101386.66
2023-09-09T11:49:14.557Z,101389.34
2023-09-09T11:50:16.417Z,101386.94
2023-09-09T11:51:19.619Z,101390.16
2023-09-09T11:52:22.007Z,101389.69
2023-09-09T11:53:23.842Z,101378.94
2023-09-09T11:54:25.516Z,101377.13
2023-09-09T11:55:27.134Z,101377.28
2023-09-09T11:56:29.132Z,101381.63
2023-09-09T11:57:30.789Z,101371.97
2023-09-09T11:58:41.648Z,101378.28
2023-09-09T11:59:44.066Z,101376.66
2023-09-09T12:00:47.295Z,101381.94